Time;durP1;ratioP1;P1;durP2;ratioP2;P2;SDS_P1;SDS_P2;PMS_P1;PMS_P2;Temp;Humidity;BMP_temperature;BMP_pressure;BME280_temperature;BME280_humidity;BME280_pressure;Samples;Min_cycle;Max_cycle;Signal;HPM_P1;HPM_P2
2022/09/11 00:01:09;;;;;;;;;13.33;13.33;;;;;;;;5100570;27;45280;-74
2022/09/11 00:03:35;;;;;;;;;24.33;22.67;;;;;;;;5098613;27;46187;-74
2022/09/11 00:06:01;;;;;;;;;17.67;16.67;;;;;;;;5098574;27;45306;-74
2022/09/11 00:08:26;;;;;;;;;13.00;13.00;;;;;;;;5113883;27;45387;-74
2022/09/11 00:10:51;;;;;;;;;22.00;19.00;;;;;;;;5098723;27;45376;-74
2022/09/11 00:13:20;;;;;;;;;22.00;19.33;;;;;;;;5098482;27;46220;-74
2022/09/11 00:15:47;;;;;;;;;21.67;17.00;;;;;;;;5097796;27;45416;-74
2022/09/11 00:18:13;;;;;;;;;15.67;15.67;;;;;;;;5098758;27;45221;-74
2022/09/11 00:20:39;;;;;;;;;20.00;16.67;;;;;;;;5098349;27;45324;-74
2022/09/11 00:23:04;;;;;;;;;20.67;16.33;;;;;;;;5098234;27;45513;-73
2022/09/11 00:25:33;;;;;;;;;18.33;15.33;;;;;;;;5098384;27;45276;-74
2022/09/11 00:27:58;;;;;;;;;18.67;18.33;;;;;;;;5098259;27;45410;-74
2022/09/11 00:30:24;;;;;;;;;18.67;14.00;;;;;;;;5098491;27;45317;-86
2022/09/11 00:32:49;;;;;;;;;18.67;16.00;;;;;;;;5097438;27;45610;-73
2022/09/11 00:35:14;;;;;;;;;19.67;17.67;;;;;;;;5098184;27;45185;-73
2022/09/11 00:37:40;;;;;;;;;17.67;16.33;;;;;;;;5098175;27;45145;-74
2022/09/11 00:40:05;;;;;;;;;22.00;18.00;;;;;;;;5097978;27;45273;-75
2022/09/11 00:42:30;;;;;;;;;17.33;15.67;;;;;;;;5098117;27;46268;-77
2022/09/11 00:44:59;;;;;;;;;18.00;14.67;;;;;;;;5097835;27;45140;-74
2022/09/11 00:47:24;;;;;;;;;17.33;15.00;;;;;;;;5098155;27;45702;-79
2022/09/11 00:49:53;;;;;;;;;16.00;15.33;;;;;;;;5118718;27;45356;-77
2022/09/11 00:52:25;;;;;;;;;20.00;16.33;;;;;;;;5118374;27;47370;-78
2022/09/11 00:54:51;;;;;;;;;23.67;17.67;;;;;;;;5118538;27;45360;-78
2022/09/11 00:57:19;;;;;;;;;18.67;15.33;;;;;;;;5118476;27;45472;-78
2022/09/11 00:59:46;;;;;;;;;23.33;19.33;;;;;;;;5118738;27;45413;-78
2022/09/11 01:02:14;;;;;;;;;20.67;20.67;;;;;;;;5118160;27;45450;-74
2022/09/11 01:04:39;;;;;;;;;23.67;19.67;;;;;;;;5118176;27;45488;-75
2022/09/11 01:07:05;;;;;;;;;23.33;19.00;;;;;;;;5117489;27;45400;-78
2022/09/11 01:09:31;;;;;;;;;20.67;17.67;;;;;;;;5118078;27;45532;-78
2022/09/11 01:12:05;;;;;;;;;20.33;17.33;;;;;;;;5118248;27;45835;-72
2022/09/11 01:14:37;;;;;;;;;25.33;23.33;;;;;;;;5120537;27;45367;-72
2022/09/11 01:17:14;;;;;;;;;22.33;19.33;;;;;;;;5121701;27;45401;-76
2022/09/11 01:19:39;;;;;;;;;18.67;16.67;;;;;;;;5121807;27;45450;-81
2022/09/11 01:22:23;;;;;;;;;20.00;14.00;;;;;;;;5121767;27;45387;-79
2022/09/11 01:25:27;;;;;;;;;21.33;19.33;;;;;;;;5104566;27;45380;-83
2022/09/11 01:27:57;;;;;;;;;24.33;19.00;;;;;;;;5018207;28;45345;-78
2022/09/11 01:30:26;;;;;;;;;18.33;18.33;;;;;;;;5018471;28;45444;-78
2022/09/11 01:33:03;;;;;;;;;30.00;29.00;;;;;;;;5017523;28;46372;-77
2022/09/11 01:35:31;;;;;;;;;24.00;21.00;;;;;;;;5017810;28;45502;-78
2022/09/11 01:38:02;;;;;;;;;23.67;17.67;;;;;;;;5018120;28;45378;-78
2022/09/11 01:40:48;;;;;;;;;32.67;23.33;;;;;;;;5018006;28;45598;-79
2022/09/11 01:43:21;;;;;;;;;19.67;18.67;;;;;;;;4958592;28;46445;-80
2022/09/11 01:45:48;;;;;;;;;27.00;22.33;;;;;;;;4958657;28;45284;-78
2022/09/11 01:48:16;;;;;;;;;25.67;22.00;;;;;;;;4958530;28;45449;-78
2022/09/11 01:50:43;;;;;;;;;22.00;20.00;;;;;;;;4958869;28;45320;-80
2022/09/11 01:53:11;;;;;;;;;20.67;18.67;;;;;;;;4958318;28;46687;-78
2022/09/11 01:55:41;;;;;;;;;23.67;22.00;;;;;;;;4958466;28;45710;-78
2022/09/11 01:58:08;;;;;;;;;24.67;21.67;;;;;;;;4975576;28;45432;-77
2022/09/11 02:00:35;;;;;;;;;24.00;20.67;;;;;;;;5016394;28;45355;-78
2022/09/11 02:03:04;;;;;;;;;19.67;17.33;;;;;;;;5017449;28;46388;-78
2022/09/11 02:05:32;;;;;;;;;23.67;18.67;;;;;;;;5017417;28;45370;-79
2022/09/11 02:08:04;;;;;;;;;26.67;19.67;;;;;;;;5017206;28;45659;-79
2022/09/11 02:10:39;;;;;;;;;24.67;20.00;;;;;;;;5017461;28;45445;-76
2022/09/11 02:13:10;;;;;;;;;27.67;23.00;;;;;;;;5017366;28;46171;-76
2022/09/11 02:15:48;;;;;;;;;22.00;18.00;;;;;;;;5015749;28;45461;-76
2022/09/11 02:18:24;;;;;;;;;29.00;23.00;;;;;;;;5017212;28;45430;-78
2022/09/11 02:20:52;;;;;;;;;27.33;22.33;;;;;;;;5090386;27;45359;-77
2022/09/11 02:23:17;;;;;;;;;25.67;21.33;;;;;;;;5120676;27;47173;-77
2022/09/11 02:25:43;;;;;;;;;22.67;20.00;;;;;;;;5119302;27;45292;-77
2022/09/11 02:28:08;;;;;;;;;28.67;22.67;;;;;;;;5121022;27;45446;-77
2022/09/11 02:30:33;;;;;;;;;21.33;20.00;;;;;;;;5120975;27;45421;-77
2022/09/11 02:32:59;;;;;;;;;26.00;23.00;;;;;;;;5109582;27;46638;-78
2022/09/11 02:35:28;;;;;;;;;25.67;21.67;;;;;;;;5100045;27;45302;-78
2022/09/11 02:38:04;;;;;;;;;23.00;21.67;;;;;;;;5100058;27;45383;-76
2022/09/11 02:40:37;;;;;;;;;26.67;24.33;;;;;;;;5100241;27;45414;-77
2022/09/11 02:43:09;;;;;;;;;17.67;17.67;;;;;;;;5099668;27;46358;-76
2022/09/11 02:45:36;;;;;;;;;28.00;22.00;;;;;;;;5099762;27;45269;-77
2022/09/11 02:48:13;;;;;;;;;20.67;18.67;;;;;;;;5099674;27;45243;-77
2022/09/11 02:50:44;;;;;;;;;23.67;21.67;;;;;;;;5099727;27;45606;-78
2022/09/11 02:53:13;;;;;;;;;30.00;21.67;;;;;;;;5099593;27;46089;-78
2022/09/11 02:55:57;;;;;;;;;20.00;17.67;;;;;;;;5099500;27;45215;-77
2022/09/11 02:58:27;;;;;;;;;24.33;22.00;;;;;;;;5099681;27;45360;-77
2022/09/11 03:00:56;;;;;;;;;25.33;23.33;;;;;;;;5099779;27;45403;-77
2022/09/11 03:03:21;;;;;;;;;28.67;24.00;;;;;;;;5099317;27;45538;-78
2022/09/11 03:05:47;;;;;;;;;28.33;22.00;;;;;;;;5100262;27;45539;-77
2022/09/11 03:08:15;;;;;;;;;32.67;24.67;;;;;;;;5119992;27;45352;-78
2022/09/11 03:10:43;;;;;;;;;21.67;21.67;;;;;;;;5120064;27;45314;-78
2022/09/11 03:13:09;;;;;;;;;26.00;21.33;;;;;;;;5119960;27;46451;-77
2022/09/11 03:15:34;;;;;;;;;28.00;21.00;;;;;;;;5119964;27;45285;-77
2022/09/11 03:18:00;;;;;;;;;26.67;21.00;;;;;;;;5120006;27;45409;-77
2022/09/11 03:20:25;;;;;;;;;25.00;21.33;;;;;;;;5120132;27;45482;-78
2022/09/11 03:22:51;;;;;;;;;23.67;20.33;;;;;;;;5116802;27;45357;-78
2022/09/11 03:25:16;;;;;;;;;25.00;18.00;;;;;;;;5099434;27;45332;-77
2022/09/11 03:27:41;;;;;;;;;22.33;19.00;;;;;;;;5099199;27;45309;-77
2022/09/11 03:30:08;;;;;;;;;21.33;20.00;;;;;;;;5099246;27;45447;-77
2022/09/11 03:32:33;;;;;;;;;24.00;19.33;;;;;;;;5098643;27;47203;-77
2022/09/11 03:35:00;;;;;;;;;20.67;20.67;;;;;;;;5099025;27;45444;-77
2022/09/11 03:37:25;;;;;;;;;23.33;20.67;;;;;;;;5098874;27;45331;-77
2022/09/11 03:39:51;;;;;;;;;23.67;20.67;;;;;;;;5098650;27;45318;-77
2022/09/11 03:42:17;;;;;;;;;26.00;23.67;;;;;;;;5098715;27;47152;-77
2022/09/11 03:44:42;;;;;;;;;25.33;22.00;;;;;;;;5099067;27;45392;-77
2022/09/11 03:47:07;;;;;;;;;25.00;21.00;;;;;;;;5099029;27;45448;-76
2022/09/11 03:49:33;;;;;;;;;39.67;34.67;;;;;;;;5098982;27;45364;-77
2022/09/11 03:51:59;;;;;;;;;25.67;21.33;;;;;;;;5098714;27;46527;-78
2022/09/11 03:54:24;;;;;;;;;21.00;18.33;;;;;;;;5098537;27;45351;-78
2022/09/11 03:56:49;;;;;;;;;29.67;23.33;;;;;;;;5098767;27;45385;-78
2022/09/11 03:59:15;;;;;;;;;21.00;18.00;;;;;;;;5098994;27;45249;-77
2022/09/11 04:01:40;;;;;;;;;33.33;26.67;;;;;;;;5098526;27;46351;-78
2022/09/11 04:04:05;;;;;;;;;37.00;27.00;;;;;;;;5098274;27;45323;-79
2022/09/11 04:06:31;;;;;;;;;27.00;20.67;;;;;;;;5098694;27;45261;-78
2022/09/11 04:08:57;;;;;;;;;27.67;25.33;;;;;;;;5098352;27;45245;-78
2022/09/11 04:11:22;;;;;;;;;28.00;25.33;;;;;;;;5098319;27;46311;-79
2022/09/11 04:13:48;;;;;;;;;29.33;26.33;;;;;;;;5111598;27;45680;-79
2022/09/11 04:16:14;;;;;;;;;26.67;22.67;;;;;;;;5119265;27;45315;-79
2022/09/11 04:18:40;;;;;;;;;27.67;20.33;;;;;;;;5119293;27;45308;-79
2022/09/11 04:21:07;;;;;;;;;23.67;22.67;;;;;;;;5118851;27;46384;-78
2022/09/11 04:23:32;;;;;;;;;27.00;20.33;;;;;;;;5118295;27;45400;-78
2022/09/11 04:25:59;;;;;;;;;25.00;21.00;;;;;;;;5119109;27;45322;-78
2022/09/11 04:28:26;;;;;;;;;24.33;21.00;;;;;;;;5119010;27;45477;-78
2022/09/11 04:30:51;;;;;;;;;21.67;20.67;;;;;;;;5105740;27;46220;-78
2022/09/11 04:33:16;;;;;;;;;27.33;21.67;;;;;;;;5098051;27;45395;-78
2022/09/11 04:35:42;;;;;;;;;29.67;23.67;;;;;;;;5098329;27;45149;-78
2022/09/11 04:38:07;;;;;;;;;29.00;23.67;;;;;;;;5098384;27;45526;-78
2022/09/11 04:40:33;;;;;;;;;22.67;18.33;;;;;;;;5097849;27;46199;-78
2022/09/11 04:42:59;;;;;;;;;30.00;22.00;;;;;;;;5097906;27;45360;-79
2022/09/11 04:45:25;;;;;;;;;27.00;21.67;;;;;;;;5098233;27;45344;-78
2022/09/11 04:47:51;;;;;;;;;27.00;21.67;;;;;;;;5112408;27;45417;-78
2022/09/11 04:50:17;;;;;;;;;27.33;23.00;;;;;;;;5118041;27;45541;-77
2022/09/11 04:52:43;;;;;;;;;26.33;20.67;;;;;;;;5118449;27;45305;-78
2022/09/11 04:55:08;;;;;;;;;33.33;29.00;;;;;;;;5118632;27;45260;-78
2022/09/11 04:57:33;;;;;;;;;43.67;38.00;;;;;;;;5118591;27;45537;-77
2022/09/11 04:59:59;;;;;;;;;31.00;28.00;;;;;;;;5118244;27;46314;-78
2022/09/11 05:02:24;;;;;;;;;36.33;32.67;;;;;;;;5111788;27;45388;-77
2022/09/11 05:04:49;;;;;;;;;33.33;22.00;;;;;;;;5097677;27;45378;-77
2022/09/11 05:07:14;;;;;;;;;26.00;23.00;;;;;;;;5097846;27;45530;-78
2022/09/11 05:09:40;;;;;;;;;26.33;21.33;;;;;;;;5097363;27;46272;-77
2022/09/11 05:12:05;;;;;;;;;31.00;26.33;;;;;;;;5097570;27;45820;-77
2022/09/11 05:14:31;;;;;;;;;28.67;26.67;;;;;;;;5098006;27;45228;-77
2022/09/11 05:16:57;;;;;;;;;23.33;21.67;;;;;;;;5097958;27;45425;-78
2022/09/11 05:19:22;;;;;;;;;28.00;27.33;;;;;;;;5097067;27;45930;-77
2022/09/11 05:21:47;;;;;;;;;28.00;25.67;;;;;;;;5097702;27;45204;-78
2022/09/11 05:24:13;;;;;;;;;36.67;26.67;;;;;;;;5097768;27;45386;-78
2022/09/11 05:26:38;;;;;;;;;28.00;24.00;;;;;;;;5097852;27;45530;-78
2022/09/11 05:29:06;;;;;;;;;35.33;28.33;;;;;;;;5097161;27;46429;-78
2022/09/11 05:31:31;;;;;;;;;30.33;27.00;;;;;;;;5097209;27;45498;-78
2022/09/11 05:33:57;;;;;;;;;32.33;30.00;;;;;;;;5097456;27;45268;-76
2022/09/11 05:36:23;;;;;;;;;31.00;29.00;;;;;;;;5114233;27;45471;-78
2022/09/11 05:38:48;;;;;;;;;35.33;29.67;;;;;;;;5117659;27;46299;-77
2022/09/11 05:41:15;;;;;;;;;31.67;28.00;;;;;;;;5117995;27;45444;-77
2022/09/11 05:43:40;;;;;;;;;32.00;29.00;;;;;;;;5118271;27;45300;-78
2022/09/11 05:46:06;;;;;;;;;29.67;25.33;;;;;;;;5118360;27;45311;-78
2022/09/11 05:48:36;;;;;;;;;31.67;28.00;;;;;;;;5117865;27;46314;-77
2022/09/11 05:51:05;;;;;;;;;31.00;30.00;;;;;;;;5099597;27;45381;-77
2022/09/11 05:53:33;;;;;;;;;38.33;33.00;;;;;;;;5101282;27;45410;-77
2022/09/11 05:56:09;;;;;;;;;32.67;25.00;;;;;;;;5097467;27;45402;-77
2022/09/11 05:58:35;;;;;;;;;29.00;24.67;;;;;;;;5096818;27;47536;-77
2022/09/11 06:01:04;;;;;;;;;27.33;24.00;;;;;;;;5099964;27;45360;-77
2022/09/11 06:03:33;;;;;;;;;31.67;25.67;;;;;;;;5100607;27;45413;-77
2022/09/11 06:05:59;;;;;;;;;24.67;23.67;;;;;;;;5100518;27;45311;-77
2022/09/11 06:08:24;;;;;;;;;33.67;27.33;;;;;;;;5099476;27;47079;-76
2022/09/11 06:10:49;;;;;;;;;29.33;25.67;;;;;;;;5100210;27;45390;-77
2022/09/11 06:13:16;;;;;;;;;27.67;24.33;;;;;;;;5100661;27;45251;-77
2022/09/11 06:15:45;;;;;;;;;27.33;24.33;;;;;;;;5100466;27;45511;-77
2022/09/11 06:18:10;;;;;;;;;25.67;24.00;;;;;;;;5100192;27;47509;-77
2022/09/11 06:20:35;;;;;;;;;33.33;28.67;;;;;;;;5100132;27;45373;-77
2022/09/11 06:23:01;;;;;;;;;28.67;26.00;;;;;;;;5099703;27;45545;-77
2022/09/11 06:25:26;;;;;;;;;33.33;29.67;;;;;;;;5100521;27;45379;-78
2022/09/11 06:27:51;;;;;;;;;31.33;24.67;;;;;;;;5099936;27;46498;-78
2022/09/11 06:30:17;;;;;;;;;38.67;33.33;;;;;;;;5099980;27;45369;-77
2022/09/11 06:32:42;;;;;;;;;41.00;32.67;;;;;;;;5100369;27;45360;-78
2022/09/11 06:35:07;;;;;;;;;40.00;31.33;;;;;;;;5100125;27;45752;-78
2022/09/11 06:37:34;;;;;;;;;39.00;29.67;;;;;;;;5099993;27;47095;-78
2022/09/11 06:39:59;;;;;;;;;36.00;31.00;;;;;;;;5099467;27;45288;-78
2022/09/11 06:42:24;;;;;;;;;35.33;31.00;;;;;;;;5099895;27;45388;-76
2022/09/11 06:44:50;;;;;;;;;34.00;29.67;;;;;;;;5100161;27;45369;-77
2022/09/11 06:47:16;;;;;;;;;41.00;33.00;;;;;;;;5099768;27;46478;-77
2022/09/11 06:49:41;;;;;;;;;34.67;31.33;;;;;;;;5099716;27;45501;-76
2022/09/11 06:52:07;;;;;;;;;34.00;31.67;;;;;;;;5099949;27;45437;-77
2022/09/11 06:54:33;;;;;;;;;35.00;30.33;;;;;;;;5099874;27;45513;-76
2022/09/11 06:56:58;;;;;;;;;26.67;26.67;;;;;;;;5098813;27;45334;-76
2022/09/11 06:59:24;;;;;;;;;26.67;22.00;;;;;;;;5120269;27;45307;-77
2022/09/11 07:01:50;;;;;;;;;34.00;27.67;;;;;;;;5120397;27;45387;-78
2022/09/11 07:04:15;;;;;;;;;24.33;22.33;;;;;;;;5120334;27;45295;-78
2022/09/11 07:06:40;;;;;;;;;37.00;32.67;;;;;;;;5119772;27;46681;-77
2022/09/11 07:09:06;;;;;;;;;29.00;23.33;;;;;;;;5113759;27;45510;-78
2022/09/11 07:11:33;;;;;;;;;42.00;36.33;;;;;;;;5098484;27;45482;-77
2022/09/11 07:13:59;;;;;;;;;34.33;28.00;;;;;;;;5098667;27;45482;-78
2022/09/11 07:16:24;;;;;;;;;30.00;27.67;;;;;;;;5098402;27;46572;-77
2022/09/11 07:18:50;;;;;;;;;35.33;28.67;;;;;;;;5098816;27;45400;-77
2022/09/11 07:21:17;;;;;;;;;34.33;31.67;;;;;;;;5099292;27;45376;-77
2022/09/11 07:23:45;;;;;;;;;25.00;23.00;;;;;;;;5099300;27;45348;-77
2022/09/11 07:26:11;;;;;;;;;36.33;30.00;;;;;;;;5097735;27;46416;-78
2022/09/11 07:28:36;;;;;;;;;31.33;27.33;;;;;;;;5098927;27;45298;-75
2022/09/11 07:31:09;;;;;;;;;35.67;29.00;;;;;;;;5081058;27;45305;-77
2022/09/11 07:33:34;;;;;;;;;29.67;28.00;;;;;;;;5078863;28;45332;-75
2022/09/11 07:35:59;;;;;;;;;28.33;24.33;;;;;;;;5078293;28;45277;-78
2022/09/11 07:38:27;;;;;;;;;31.00;26.67;;;;;;;;5078337;28;45470;-72
2022/09/11 07:40:53;;;;;;;;;24.33;23.67;;;;;;;;5078378;28;45489;-75
2022/09/11 07:43:19;;;;;;;;;32.00;24.33;;;;;;;;5078537;28;45451;-75
2022/09/11 07:45:44;;;;;;;;;32.33;25.33;;;;;;;;5078142;28;47029;-75
2022/09/11 07:48:10;;;;;;;;;24.00;22.67;;;;;;;;5078116;27;45226;-74
2022/09/11 07:50:35;;;;;;;;;28.00;25.33;;;;;;;;5077839;28;45704;-75
2022/09/11 07:53:00;;;;;;;;;24.00;23.00;;;;;;;;5078439;28;45467;-75
2022/09/11 07:55:25;;;;;;;;;25.67;23.00;;;;;;;;5078104;28;46390;-75
2022/09/11 07:57:50;;;;;;;;;27.00;18.67;;;;;;;;5078288;28;45386;-75
2022/09/11 08:00:16;;;;;;;;;34.33;25.67;;;;;;;;5078155;28;45424;-76
2022/09/11 08:02:41;;;;;;;;;29.67;23.33;;;;;;;;5078428;27;45285;-73
2022/09/11 08:05:07;;;;;;;;;24.67;23.00;;;;;;;;5084255;27;46037;-74
2022/09/11 08:07:32;;;;;;;;;30.00;25.00;;;;;;;;5080111;27;45426;-74
2022/09/11 08:09:57;;;;;;;;;24.00;19.67;;;;;;;;5098225;27;45261;-74
2022/09/11 08:12:22;;;;;;;;;29.00;26.67;;;;;;;;5098592;27;45302;-73
2022/09/11 08:14:47;;;;;;;;;62.00;45.67;;;;;;;;5096160;27;45523;-73
2022/09/11 08:17:13;;;;;;;;;31.33;25.00;;;;;;;;5086650;27;45488;-79
2022/09/11 08:19:38;;;;;;;;;22.67;19.33;;;;;;;;5078025;28;45591;-77
2022/09/11 08:22:03;;;;;;;;;16.67;15.33;;;;;;;;5077230;27;45514;-75
2022/09/11 08:24:29;;;;;;;;;10.33;9.33;;;;;;;;5077904;28;46487;-78
2022/09/11 08:26:55;;;;;;;;;8.67;8.67;;;;;;;;5077939;28;45428;-84
2022/09/11 08:29:21;;;;;;;;;16.00;11.00;;;;;;;;5077947;28;45351;-80
2022/09/11 08:31:46;;;;;;;;;8.67;7.00;;;;;;;;5078503;28;45352;-85
2022/09/11 08:34:11;;;;;;;;;12.33;12.33;;;;;;;;5078307;28;46839;-83
2022/09/11 08:36:37;;;;;;;;;9.67;9.67;;;;;;;;5096331;27;45754;-79
2022/09/11 08:39:02;;;;;;;;;12.33;12.33;;;;;;;;5098596;27;45384;-81
2022/09/11 08:41:49;;;;;;;;;5.00;5.00;;;;;;;;5098204;27;45336;-78
2022/09/11 08:44:25;;;;;;;;;9.00;8.00;;;;;;;;5097903;27;46647;-74
2022/09/11 08:47:14;;;;;;;;;17.00;17.00;;;;;;;;5098046;27;45387;-74
2022/09/11 08:49:42;;;;;;;;;12.33;10.67;;;;;;;;5097764;27;45352;-85
2022/09/11 08:52:10;;;;;;;;;8.00;6.67;;;;;;;;5098390;27;45323;-79
2022/09/11 08:54:37;;;;;;;;;20.00;14.33;;;;;;;;5077028;27;46397;-75
2022/09/11 08:57:15;;;;;;;;;12.67;9.67;;;;;;;;5097424;27;45307;-78
2022/09/11 08:59:59;;;;;;;;;15.00;15.00;;;;;;;;5097558;27;45382;-75
2022/09/11 09:02:37;;;;;;;;;16.33;15.00;;;;;;;;5095324;27;45590;-72
2022/09/11 09:05:24;;;;;;;;;13.67;11.33;;;;;;;;5097532;27;47289;-74
2022/09/11 09:08:03;;;;;;;;;16.33;16.33;;;;;;;;5097665;27;45204;-77
2022/09/11 09:10:47;;;;;;;;;14.00;12.33;;;;;;;;5097489;27;45371;-83
2022/09/11 09:13:18;;;;;;;;;14.00;11.00;;;;;;;;5077811;27;45310;-75
2022/09/11 09:15:56;;;;;;;;;8.67;8.00;;;;;;;;5076974;28;46576;-76
2022/09/11 09:18:49;;;;;;;;;10.33;10.33;;;;;;;;5076645;27;45371;-84
2022/09/11 09:21:14;;;;;;;;;12.00;12.00;;;;;;;;5073715;28;45594;-80
2022/09/11 09:23:48;;;;;;;;;9.33;9.00;;;;;;;;5077223;28;45752;-80
2022/09/11 09:26:18;;;;;;;;;11.00;11.00;;;;;;;;5076389;28;46480;-79
2022/09/11 09:28:49;;;;;;;;;13.33;11.00;;;;;;;;5075995;27;45352;-78
2022/09/11 09:31:18;;;;;;;;;17.33;14.67;;;;;;;;5077104;28;45272;-83
2022/09/11 09:33:48;;;;;;;;;11.67;11.00;;;;;;;;5077281;27;45249;-80
2022/09/11 09:36:13;;;;;;;;;9.33;9.33;;;;;;;;5079869;28;47332;-81
2022/09/11 09:38:39;;;;;;;;;13.00;10.00;;;;;;;;5080314;28;45364;-74
2022/09/11 09:41:20;;;;;;;;;14.67;10.00;;;;;;;;5080050;27;45357;-76
2022/09/11 09:43:45;;;;;;;;;8.00;8.00;;;;;;;;5080428;27;45289;-84
2022/09/11 09:46:34;;;;;;;;;7.33;7.33;;;;;;;;5081207;27;45602;-81
2022/09/11 09:49:00;;;;;;;;;10.00;9.00;;;;;;;;5100460;27;45311;-78
2022/09/11 09:51:25;;;;;;;;;20.67;18.33;;;;;;;;5100549;27;45392;-76
2022/09/11 09:53:57;;;;;;;;;8.00;6.00;;;;;;;;5100811;27;45387;-76
2022/09/11 09:56:23;;;;;;;;;16.00;11.67;;;;;;;;5100635;27;47145;-80
2022/09/11 09:59:01;;;;;;;;;15.00;12.33;;;;;;;;5100228;27;45243;-74
2022/09/11 10:01:44;;;;;;;;;8.00;8.00;;;;;;;;5099623;27;45440;-75
2022/09/11 10:04:21;;;;;;;;;8.00;8.00;;;;;;;;5100484;27;45365;-73
2022/09/11 10:06:47;;;;;;;;;12.00;8.00;;;;;;;;5100068;27;45379;-78
2022/09/11 10:09:28;;;;;;;;;9.33;7.33;;;;;;;;5099975;27;45323;-75
2022/09/11 10:12:11;;;;;;;;;4.67;4.67;;;;;;;;5099935;27;45444;-77
2022/09/11 10:14:57;;;;;;;;;6.00;5.00;;;;;;;;5100688;27;45208;-77
2022/09/11 10:17:30;;;;;;;;;6.67;6.67;;;;;;;;5099998;27;46331;-77
2022/09/11 10:20:11;;;;;;;;;4.67;4.67;;;;;;;;5093181;27;45799;-72
2022/09/11 10:22:36;;;;;;;;;9.33;9.33;;;;;;;;5100336;27;45391;-77
2022/09/11 10:25:14;;;;;;;;;5.00;5.00;;;;;;;;5100115;27;45260;-76
2022/09/11 10:27:48;;;;;;;;;4.67;4.67;;;;;;;;5099923;27;46943;-75
2022/09/11 10:30:31;;;;;;;;;6.00;4.67;;;;;;;;5099887;27;45507;-75
2022/09/11 10:32:57;;;;;;;;;4.00;4.00;;;;;;;;5099943;27;45359;-80
2022/09/11 10:35:25;;;;;;;;;6.00;6.00;;;;;;;;5099728;27;45322;-78
2022/09/11 10:38:06;;;;;;;;;7.67;7.67;;;;;;;;5099811;27;47177;-78
2022/09/11 10:40:31;;;;;;;;;5.67;4.00;;;;;;;;5100055;27;45656;-77
2022/09/11 10:42:56;;;;;;;;;4.33;4.33;;;;;;;;5100294;27;45431;-76
2022/09/11 10:45:21;;;;;;;;;5.67;5.67;;;;;;;;5099958;27;45434;-75
2022/09/11 10:47:47;;;;;;;;;5.00;4.00;;;;;;;;5098511;27;45339;-75
2022/09/11 10:50:19;;;;;;;;;12.33;12.33;;;;;;;;5084279;27;45482;-77
2022/09/11 10:52:56;;;;;;;;;3.00;3.00;;;;;;;;5079382;27;45479;-77
2022/09/11 10:55:22;;;;;;;;;8.67;8.00;;;;;;;;5079935;27;45337;-77
2022/09/11 10:57:51;;;;;;;;;8.33;8.33;;;;;;;;5079276;27;46369;-78
2022/09/11 11:00:22;;;;;;;;;5.67;5.67;;;;;;;;5079511;28;45277;-79
2022/09/11 11:02:48;;;;;;;;;5.00;5.00;;;;;;;;5079571;28;45278;-79
2022/09/11 11:05:24;;;;;;;;;6.33;3.67;;;;;;;;5079346;28;45403;-78
2022/09/11 11:07:50;;;;;;;;;5.67;5.33;;;;;;;;5097585;27;46459;-78
2022/09/11 11:10:18;;;;;;;;;5.00;5.00;;;;;;;;5083768;27;45428;-77
2022/09/11 11:12:43;;;;;;;;;6.00;6.00;;;;;;;;5079220;28;45381;-74
2022/09/11 11:15:18;;;;;;;;;7.00;5.00;;;;;;;;5079179;28;45396;-77
2022/09/11 11:17:44;;;;;;;;;4.67;4.67;;;;;;;;5078895;28;46585;-80
2022/09/11 11:20:15;;;;;;;;;4.00;3.33;;;;;;;;5078915;28;45264;-76
2022/09/11 11:22:40;;;;;;;;;4.33;4.33;;;;;;;;5065039;27;48143;-78
2022/09/11 11:25:18;;;;;;;;;5.33;4.33;;;;;;;;5058692;28;45328;-78
2022/09/11 11:28:02;;;;;;;;;7.00;5.00;;;;;;;;5058352;28;46142;-73
2022/09/11 11:30:30;;;;;;;;;4.00;4.00;;;;;;;;5058302;28;45315;-74
2022/09/11 11:33:01;;;;;;;;;11.00;9.00;;;;;;;;5058511;28;45560;-74
2022/09/11 11:35:35;;;;;;;;;9.67;8.33;;;;;;;;5058685;28;45191;-71
2022/09/11 11:38:21;;;;;;;;;8.33;7.33;;;;;;;;5058308;28;45293;-71
2022/09/11 11:41:06;;;;;;;;;5.33;5.33;;;;;;;;5076797;27;46284;-78
2022/09/11 11:43:33;;;;;;;;;6.33;5.00;;;;;;;;5077908;28;45402;-76
2022/09/11 11:46:07;;;;;;;;;7.67;6.00;;;;;;;;5078572;28;45408;-73
2022/09/11 11:48:50;;;;;;;;;5.00;5.00;;;;;;;;5078419;28;45537;-74
2022/09/11 11:51:17;;;;;;;;;6.00;5.33;;;;;;;;5078588;28;45291;-74
2022/09/11 11:53:51;;;;;;;;;6.00;6.00;;;;;;;;5078390;28;45761;-74
2022/09/11 11:56:22;;;;;;;;;4.67;4.67;;;;;;;;5077415;27;45568;-73
2022/09/11 11:58:48;;;;;;;;;13.67;9.67;;;;;;;;5077747;28;47500;-73
2022/09/11 12:01:19;;;;;;;;;5.00;5.00;;;;;;;;5078215;27;45311;-72
2022/09/11 12:03:49;;;;;;;;;7.00;6.33;;;;;;;;5071492;28;45316;-73
2022/09/11 12:06:15;;;;;;;;;4.00;4.00;;;;;;;;5073865;28;45400;-73
2022/09/11 12:08:44;;;;;;;;;5.67;5.67;;;;;;;;5079176;27;46893;-73
2022/09/11 12:11:11;;;;;;;;;6.33;6.33;;;;;;;;5098092;27;45269;-73
2022/09/11 12:13:40;;;;;;;;;8.00;8.00;;;;;;;;5097721;27;45375;-73
2022/09/11 12:16:10;;;;;;;;;22.33;19.67;;;;;;;;5098287;27;45315;-73
2022/09/11 12:18:37;;;;;;;;;19.33;16.67;;;;;;;;5096882;27;45504;-78
2022/09/11 12:21:21;;;;;;;;;8.33;8.33;;;;;;;;5098374;27;45429;-80
2022/09/11 12:23:48;;;;;;;;;15.67;14.67;;;;;;;;5091404;27;45361;-70
2022/09/11 12:26:14;;;;;;;;;14.00;13.33;;;;;;;;5081686;27;45437;-75
2022/09/11 12:28:39;;;;;;;;;14.00;10.33;;;;;;;;5077616;28;46336;-81
2022/09/11 12:31:06;;;;;;;;;11.33;11.00;;;;;;;;5077372;27;45280;-74
2022/09/11 12:33:47;;;;;;;;;13.00;13.00;;;;;;;;5078106;28;45296;-73
2022/09/11 12:36:24;;;;;;;;;17.50;15.50;;;;;;;;5078041;28;45306;-84
2022/09/11 12:39:01;;;;;;;;;15.00;13.00;;;;;;;;5077597;28;46400;-80
2022/09/11 12:41:29;;;;;;;;;9.33;8.33;;;;;;;;5077451;27;45270;-76
2022/09/11 12:43:54;;;;;;;;;10.33;10.33;;;;;;;;5077794;28;45214;-70
2022/09/11 12:46:19;;;;;;;;;13.33;13.33;;;;;;;;5077296;27;45428;-69
2022/09/11 12:48:47;;;;;;;;;14.00;12.67;;;;;;;;5059242;28;46692;-75
2022/09/11 12:51:22;;;;;;;;;12.67;11.33;;;;;;;;5077744;28;45459;-70
2022/09/11 12:53:49;;;;;;;;;13.33;13.33;;;;;;;;5077542;28;45387;-71
2022/09/11 12:56:18;;;;;;;;;11.67;11.00;;;;;;;;5077756;27;45300;-74
2022/09/11 12:58:45;;;;;;;;;12.33;10.00;;;;;;;;5077373;28;45435;-82
2022/09/11 13:01:12;;;;;;;;;13.00;11.33;;;;;;;;5077747;28;45439;-81
2022/09/11 13:03:38;;;;;;;;;10.00;10.00;;;;;;;;5077502;27;45317;-79
2022/09/11 13:06:08;;;;;;;;;12.00;11.00;;;;;;;;5077650;27;45401;-75
2022/09/11 13:08:39;;;;;;;;;10.67;10.33;;;;;;;;5076771;28;46629;-72
2022/09/11 13:11:24;;;;;;;;;17.33;12.00;;;;;;;;5080294;28;45319;-69
2022/09/11 13:13:49;;;;;;;;;11.33;10.67;;;;;;;;5080973;27;45234;-67
2022/09/11 13:16:25;;;;;;;;;13.00;13.00;;;;;;;;5081229;28;45344;-77
2022/09/11 13:18:55;;;;;;;;;13.67;12.00;;;;;;;;5080603;28;46477;-80
2022/09/11 13:21:21;;;;;;;;;15.33;12.00;;;;;;;;5080404;27;45369;-77
2022/09/11 13:23:47;;;;;;;;;12.00;11.00;;;;;;;;5080874;28;45456;-76
2022/09/11 13:26:23;;;;;;;;;11.00;11.00;;;;;;;;5080842;28;45480;-77
2022/09/11 13:28:50;;;;;;;;;8.67;8.67;;;;;;;;5080519;28;46241;-77
2022/09/11 13:31:22;;;;;;;;;10.00;10.00;;;;;;;;5080678;28;45374;-75
2022/09/11 13:33:51;;;;;;;;;11.00;9.33;;;;;;;;5080706;27;45404;-68
2022/09/11 13:36:19;;;;;;;;;8.67;8.67;;;;;;;;5080844;28;45421;-72
2022/09/11 13:38:47;;;;;;;;;11.33;10.67;;;;;;;;5086618;27;46397;-71
2022/09/11 13:41:14;;;;;;;;;10.00;10.00;;;;;;;;5100685;27;45310;-80
2022/09/11 13:43:45;;;;;;;;;11.00;8.00;;;;;;;;5101058;27;45443;-70
2022/09/11 13:46:14;;;;;;;;;11.67;10.00;;;;;;;;5101210;27;45438;-70
2022/09/11 13:48:39;;;;;;;;;10.67;9.33;;;;;;;;5100562;27;46247;-70
2022/09/11 13:51:05;;;;;;;;;10.00;10.00;;;;;;;;5100437;27;45337;-73
2022/09/11 13:53:31;;;;;;;;;9.00;8.67;;;;;;;;5100983;27;45337;-71
2022/09/11 13:55:56;;;;;;;;;12.67;9.00;;;;;;;;5092012;27;45321;-75
2022/09/11 13:58:23;;;;;;;;;9.33;9.33;;;;;;;;5080225;28;45390;-71
2022/09/11 14:00:49;;;;;;;;;9.00;9.00;;;;;;;;5080002;27;45253;-70
2022/09/11 14:03:19;;;;;;;;;8.00;8.00;;;;;;;;5080364;28;45351;-79
2022/09/11 14:05:49;;;;;;;;;10.00;8.00;;;;;;;;5080156;28;45392;-75
2022/09/11 14:08:20;;;;;;;;;8.00;7.33;;;;;;;;5079663;27;46491;-74
2022/09/11 14:10:47;;;;;;;;;9.00;8.00;;;;;;;;5079517;28;45300;-74
2022/09/11 14:13:26;;;;;;;;;10.33;9.33;;;;;;;;5092396;27;45277;-75
2022/09/11 14:16:06;;;;;;;;;8.00;8.00;;;;;;;;5082383;27;45369;-77
2022/09/11 14:18:31;;;;;;;;;7.33;7.33;;;;;;;;5100036;27;46214;-78
2022/09/11 14:20:58;;;;;;;;;9.33;8.00;;;;;;;;5099946;27;45357;-79
2022/09/11 14:23:26;;;;;;;;;6.67;6.67;;;;;;;;5100641;27;45262;-77
2022/09/11 14:26:10;;;;;;;;;6.00;6.00;;;;;;;;5100421;27;45332;-77
2022/09/11 14:28:39;;;;;;;;;9.67;9.33;;;;;;;;5095061;27;47122;-78
2022/09/11 14:31:06;;;;;;;;;8.00;8.00;;;;;;;;5100126;27;45354;-79
2022/09/11 14:33:31;;;;;;;;;6.00;6.00;;;;;;;;5100263;27;45375;-79